sensor_id;sensor_type;location;lat;lon;timestamp;temperature;humidity
15217;DHT22;7711;46.634;14.318;2023-04-03T00:01:53;7.90;99.90
15217;DHT22;7711;46.634;14.318;2023-04-03T00:04:20;7.80;99.90
15217;DHT22;7711;46.634;14.318;2023-04-03T00:06:47;7.70;99.90
15217;DHT22;7711;46.634;14.318;2023-04-03T00:09:14;7.60;99.90
15217;DHT22;7711;46.634;14.318;2023-04-03T00:11:42;7.60;99.90
15217;DHT22;7711;46.634;14.318;2023-04-03T00:14:10;7.50;99.90
15217;DHT22;7711;46.634;14.318;2023-04-03T00:16:37;7.50;99.90
15217;DHT22;7711;46.634;14.318;2023-04-03T00:19:04;7.40;99.90
15217;DHT22;7711;46.634;14.318;2023-04-03T00:21:31;7.40;99.90
15217;DHT22;7711;46.634;14.318;2023-04-03T00:23:58;7.40;99.90
15217;DHT22;7711;46.634;14.318;2023-04-03T00:26:25;7.30;99.90
15217;DHT22;7711;46.634;14.318;2023-04-03T00:28:52;7.30;99.90
15217;DHT22;7711;46.634;14.318;2023-04-03T00:31:21;7.20;99.90
15217;DHT22;7711;46.634;14.318;2023-04-03T00:33:48;7.20;99.90
15217;DHT22;7711;46.634;14.318;2023-04-03T00:36:15;7.20;99.90
15217;DHT22;7711;46.634;14.318;2023-04-03T00:38:42;7.20;99.90
15217;DHT22;7711;46.634;14.318;2023-04-03T00:41:09;7.20;99.90
15217;DHT22;7711;46.634;14.318;2023-04-03T00:43:36;7.10;99.90
15217;DHT22;7711;46.634;14.318;2023-04-03T00:46:04;7.00;99.90
15217;DHT22;7711;46.634;14.318;2023-04-03T00:48:34;7.10;99.90
15217;DHT22;7711;46.634;14.318;2023-04-03T00:51:04;7.10;99.90
15217;DHT22;7711;46.634;14.318;2023-04-03T00:53:35;7.00;99.90
15217;DHT22;7711;46.634;14.318;2023-04-03T00:56:06;6.90;99.90
15217;DHT22;7711;46.634;14.318;2023-04-03T00:58:39;6.90;99.90
15217;DHT22;7711;46.634;14.318;2023-04-03T01:01:10;6.70;99.90
15217;DHT22;7711;46.634;14.318;2023-04-03T01:03:40;6.50;99.90
15217;DHT22;7711;46.634;14.318;2023-04-03T01:06:07;6.40;99.90
15217;DHT22;7711;46.634;14.318;2023-04-03T01:08:34;6.40;99.90
15217;DHT22;7711;46.634;14.318;2023-04-03T01:11:02;6.40;99.90
15217;DHT22;7711;46.634;14.318;2023-04-03T01:13:31;6.30;99.90
15217;DHT22;7711;46.634;14.318;2023-04-03T01:16:00;6.30;99.90
15217;DHT22;7711;46.634;14.318;2023-04-03T01:18:27;6.20;99.90
15217;DHT22;7711;46.634;14.318;2023-04-03T01:24:11;6.10;99.90
15217;DHT22;7711;46.634;14.318;2023-04-03T01:26:41;6.00;99.90
15217;DHT22;7711;46.634;14.318;2023-04-03T01:29:08;6.00;99.90
15217;DHT22;7711;46.634;14.318;2023-04-03T01:31:53;6.00;99.90
15217;DHT22;7711;46.634;14.318;2023-04-03T01:34:20;5.90;99.90
15217;DHT22;7711;46.634;14.318;2023-04-03T01:36:47;5.80;99.90
15217;DHT22;7711;46.634;14.318;2023-04-03T01:39:14;5.80;99.90
15217;DHT22;7711;46.634;14.318;2023-04-03T01:41:41;5.70;99.90
15217;DHT22;7711;46.634;14.318;2023-04-03T01:44:08;5.70;99.90
15217;DHT22;7711;46.634;14.318;2023-04-03T01:46:35;5.70;99.90
15217;DHT22;7711;46.634;14.318;2023-04-03T01:49:05;5.60;99.90
15217;DHT22;7711;46.634;14.318;2023-04-03T01:51:32;5.50;99.90
15217;DHT22;7711;46.634;14.318;2023-04-03T01:53:59;5.50;99.90
15217;DHT22;7711;46.634;14.318;2023-04-03T01:56:26;5.50;99.90
15217;DHT22;7711;46.634;14.318;2023-04-03T01:58:54;5.50;99.90
15217;DHT22;7711;46.634;14.318;2023-04-03T02:01:21;5.40;99.90
15217;DHT22;7711;46.634;14.318;2023-04-03T02:03:48;5.40;99.90
15217;DHT22;7711;46.634;14.318;2023-04-03T02:06:16;5.40;99.90
15217;DHT22;7711;46.634;14.318;2023-04-03T02:08:43;5.30;99.90
15217;DHT22;7711;46.634;14.318;2023-04-03T02:11:10;5.30;99.90
15217;DHT22;7711;46.634;14.318;2023-04-03T02:13:37;5.30;99.90
15217;DHT22;7711;46.634;14.318;2023-04-03T02:16:08;5.30;99.90
15217;DHT22;7711;46.634;14.318;2023-04-03T02:18:38;5.20;99.90
15217;DHT22;7711;46.634;14.318;2023-04-03T02:21:06;5.20;99.90
15217;DHT22;7711;46.634;14.318;2023-04-03T02:23:34;5.30;99.90
15217;DHT22;7711;46.634;14.318;2023-04-03T02:26:07;5.30;99.90
15217;DHT22;7711;46.634;14.318;2023-04-03T02:28:34;5.30;99.90
15217;DHT22;7711;46.634;14.318;2023-04-03T02:31:01;5.30;99.90
15217;DHT22;7711;46.634;14.318;2023-04-03T02:33:29;5.30;99.90
15217;DHT22;7711;46.634;14.318;2023-04-03T02:35:56;5.30;99.90
15217;DHT22;7711;46.634;14.318;2023-04-03T02:38:24;5.30;99.90
15217;DHT22;7711;46.634;14.318;2023-04-03T02:40:53;5.30;99.90
15217;DHT22;7711;46.634;14.318;2023-04-03T02:43:21;5.20;99.90
15217;DHT22;7711;46.634;14.318;2023-04-03T02:45:48;5.20;99.90
15217;DHT22;7711;46.634;14.318;2023-04-03T02:48:15;5.20;99.90
15217;DHT22;7711;46.634;14.318;2023-04-03T02:50:42;5.00;99.90
15217;DHT22;7711;46.634;14.318;2023-04-03T02:53:09;5.10;99.90
15217;DHT22;7711;46.634;14.318;2023-04-03T02:55:36;5.00;99.90
15217;DHT22;7711;46.634;14.318;2023-04-03T02:58:05;4.90;99.90
15217;DHT22;7711;46.634;14.318;2023-04-03T03:00:32;5.00;99.90
15217;DHT22;7711;46.634;14.318;2023-04-03T03:02:59;4.90;99.90
15217;DHT22;7711;46.634;14.318;2023-04-03T03:05:27;4.80;99.90
15217;DHT22;7711;46.634;14.318;2023-04-03T03:07:54;4.80;99.90
15217;DHT22;7711;46.634;14.318;2023-04-03T03:10:22;4.70;99.90
15217;DHT22;7711;46.634;14.318;2023-04-03T03:12:49;4.70;99.90
15217;DHT22;7711;46.634;14.318;2023-04-03T03:15:18;4.70;99.90
15217;DHT22;7711;46.634;14.318;2023-04-03T03:17:45;4.60;99.90
15217;DHT22;7711;46.634;14.318;2023-04-03T03:20:13;4.60;99.90
15217;DHT22;7711;46.634;14.318;2023-04-03T03:22:41;4.50;99.90
15217;DHT22;7711;46.634;14.318;2023-04-03T03:25:08;4.50;99.90
15217;DHT22;7711;46.634;14.318;2023-04-03T03:27:36;4.50;99.90
15217;DHT22;7711;46.634;14.318;2023-04-03T03:30:04;4.50;99.90
15217;DHT22;7711;46.634;14.318;2023-04-03T03:32:32;4.40;99.90
15217;DHT22;7711;46.634;14.318;2023-04-03T03:35:00;4.40;99.90
15217;DHT22;7711;46.634;14.318;2023-04-03T03:37:27;4.40;99.90
15217;DHT22;7711;46.634;14.318;2023-04-03T03:39:54;4.30;99.90
15217;DHT22;7711;46.634;14.318;2023-04-03T03:42:21;4.30;99.90
15217;DHT22;7711;46.634;14.318;2023-04-03T03:44:48;4.30;99.90
15217;DHT22;7711;46.634;14.318;2023-04-03T03:47:15;4.30;99.90
15217;DHT22;7711;46.634;14.318;2023-04-03T03:49:43;4.20;99.90
15217;DHT22;7711;46.634;14.318;2023-04-03T03:52:10;4.20;99.90
15217;DHT22;7711;46.634;14.318;2023-04-03T03:54:38;4.20;99.90
15217;DHT22;7711;46.634;14.318;2023-04-03T03:57:05;4.20;99.90
15217;DHT22;7711;46.634;14.318;2023-04-03T03:59:32;4.10;99.90
15217;DHT22;7711;46.634;14.318;2023-04-03T04:01:59;4.10;99.90
15217;DHT22;7711;46.634;14.318;2023-04-03T04:04:26;4.10;99.90
15217;DHT22;7711;46.634;14.318;2023-04-03T04:06:55;4.20;99.90
15217;DHT22;7711;46.634;14.318;2023-04-03T04:09:22;4.20;99.90
15217;DHT22;7711;46.634;14.318;2023-04-03T04:11:49;4.10;99.90
15217;DHT22;7711;46.634;14.318;2023-04-03T04:14:16;4.10;99.90
15217;DHT22;7711;46.634;14.318;2023-04-03T04:16:43;4.00;99.90
15217;DHT22;7711;46.634;14.318;2023-04-03T04:19:10;4.00;99.90
15217;DHT22;7711;46.634;14.318;2023-04-03T04:21:37;4.00;99.90
15217;DHT22;7711;46.634;14.318;2023-04-03T04:24:06;4.00;99.90
15217;DHT22;7711;46.634;14.318;2023-04-03T04:26:34;4.00;99.90
15217;DHT22;7711;46.634;14.318;2023-04-03T04:29:01;4.00;99.90
15217;DHT22;7711;46.634;14.318;2023-04-03T04:31:28;3.90;99.90
15217;DHT22;7711;46.634;14.318;2023-04-03T04:33:55;3.80;99.90
15217;DHT22;7711;46.634;14.318;2023-04-03T04:36:22;3.80;99.90
15217;DHT22;7711;46.634;14.318;2023-04-03T04:38:49;3.80;99.90
15217;DHT22;7711;46.634;14.318;2023-04-03T04:41:19;3.70;99.90
15217;DHT22;7711;46.634;14.318;2023-04-03T04:43:48;3.70;99.90
15217;DHT22;7711;46.634;14.318;2023-04-03T04:46:15;3.70;99.90
15217;DHT22;7711;46.634;14.318;2023-04-03T04:48:43;3.70;99.90
15217;DHT22;7711;46.634;14.318;2023-04-03T04:51:11;3.70;99.90
15217;DHT22;7711;46.634;14.318;2023-04-03T04:53:38;3.70;99.90
15217;DHT22;7711;46.634;14.318;2023-04-03T04:56:06;3.80;99.90
15217;DHT22;7711;46.634;14.318;2023-04-03T04:58:35;3.70;99.90
15217;DHT22;7711;46.634;14.318;2023-04-03T05:01:04;3.70;99.90
15217;DHT22;7711;46.634;14.318;2023-04-03T05:03:31;3.70;99.90
15217;DHT22;7711;46.634;14.318;2023-04-03T05:05:58;3.70;99.90
15217;DHT22;7711;46.634;14.318;2023-04-03T05:08:26;3.70;99.90
15217;DHT22;7711;46.634;14.318;2023-04-03T05:10:55;3.70;99.90
15217;DHT22;7711;46.634;14.318;2023-04-03T05:13:22;3.70;99.90
15217;DHT22;7711;46.634;14.318;2023-04-03T05:15:51;3.80;99.90
15217;DHT22;7711;46.634;14.318;2023-04-03T05:18:18;3.80;99.90
15217;DHT22;7711;46.634;14.318;2023-04-03T05:20:45;3.90;99.90
15217;DHT22;7711;46.634;14.318;2023-04-03T05:23:15;3.90;99.90
15217;DHT22;7711;46.634;14.318;2023-04-03T05:25:42;4.00;99.90
15217;DHT22;7711;46.634;14.318;2023-04-03T05:28:09;4.00;99.90
15217;DHT22;7711;46.634;14.318;2023-04-03T05:30:36;4.10;99.90
15217;DHT22;7711;46.634;14.318;2023-04-03T05:33:05;4.10;99.90
15217;DHT22;7711;46.634;14.318;2023-04-03T05:35:32;4.20;99.90
15217;DHT22;7711;46.634;14.318;2023-04-03T05:37:59;4.30;99.90
15217;DHT22;7711;46.634;14.318;2023-04-03T05:40:26;4.40;99.90
15217;DHT22;7711;46.634;14.318;2023-04-03T05:42:53;4.50;99.90
15217;DHT22;7711;46.634;14.318;2023-04-03T05:45:20;4.50;99.90
15217;DHT22;7711;46.634;14.318;2023-04-03T05:47:48;4.50;99.90
15217;DHT22;7711;46.634;14.318;2023-04-03T05:50:16;4.60;99.90
15217;DHT22;7711;46.634;14.318;2023-04-03T05:52:45;4.70;99.90
15217;DHT22;7711;46.634;14.318;2023-04-03T05:55:13;4.70;99.90
15217;DHT22;7711;46.634;14.318;2023-04-03T05:57:40;4.70;99.90
15217;DHT22;7711;46.634;14.318;2023-04-03T06:00:11;4.80;99.90
15217;DHT22;7711;46.634;14.318;2023-04-03T06:02:38;4.90;99.90
15217;DHT22;7711;46.634;14.318;2023-04-03T06:05:06;5.10;99.90
15217;DHT22;7711;46.634;14.318;2023-04-03T06:07:35;5.10;99.90
15217;DHT22;7711;46.634;14.318;2023-04-03T06:10:03;5.20;99.90
15217;DHT22;7711;46.634;14.318;2023-04-03T06:12:31;5.30;99.90
15217;DHT22;7711;46.634;14.318;2023-04-03T06:14:58;5.40;99.90
15217;DHT22;7711;46.634;14.318;2023-04-03T06:17:25;5.50;99.90
15217;DHT22;7711;46.634;14.318;2023-04-03T06:19:52;5.50;99.90
15217;DHT22;7711;46.634;14.318;2023-04-03T06:22:19;5.60;99.90
15217;DHT22;7711;46.634;14.318;2023-04-03T06:24:48;5.70;99.90
15217;DHT22;7711;46.634;14.318;2023-04-03T06:27:15;5.80;99.90
15217;DHT22;7711;46.634;14.318;2023-04-03T06:29:42;5.90;99.90
15217;DHT22;7711;46.634;14.318;2023-04-03T06:32:10;6.10;99.90
15217;DHT22;7711;46.634;14.318;2023-04-03T06:34:37;6.20;99.90
15217;DHT22;7711;46.634;14.318;2023-04-03T06:37:05;6.40;99.90
15217;DHT22;7711;46.634;14.318;2023-04-03T06:39:32;6.30;99.90
15217;DHT22;7711;46.634;14.318;2023-04-03T06:42:02;6.30;99.90
15217;DHT22;7711;46.634;14.318;2023-04-03T06:44:29;6.40;99.90
15217;DHT22;7711;46.634;14.318;2023-04-03T06:46:56;6.40;99.90
15217;DHT22;7711;46.634;14.318;2023-04-03T06:49:23;6.50;99.90
15217;DHT22;7711;46.634;14.318;2023-04-03T06:51:50;6.70;99.90
15217;DHT22;7711;46.634;14.318;2023-04-03T06:54:18;6.90;99.90
15217;DHT22;7711;46.634;14.318;2023-04-03T06:56:45;7.00;99.90
15217;DHT22;7711;46.634;14.318;2023-04-03T06:59:13;7.00;99.90
15217;DHT22;7711;46.634;14.318;2023-04-03T07:01:41;6.90;99.90
15217;DHT22;7711;46.634;14.318;2023-04-03T07:04:08;7.00;99.90
15217;DHT22;7711;46.634;14.318;2023-04-03T07:06:35;7.10;99.90
15217;DHT22;7711;46.634;14.318;2023-04-03T07:09:03;7.10;99.90
15217;DHT22;7711;46.634;14.318;2023-04-03T07:11:30;7.30;99.90
15217;DHT22;7711;46.634;14.318;2023-04-03T07:13:57;7.40;99.90
15217;DHT22;7711;46.634;14.318;2023-04-03T07:16:25;7.50;99.90
15217;DHT22;7711;46.634;14.318;2023-04-03T07:18:52;7.60;99.90
15217;DHT22;7711;46.634;14.318;2023-04-03T07:21:19;7.60;99.90
15217;DHT22;7711;46.634;14.318;2023-04-03T07:23:46;7.50;99.90
15217;DHT22;7711;46.634;14.318;2023-04-03T07:26:13;7.60;99.90
15217;DHT22;7711;46.634;14.318;2023-04-03T07:28:40;7.70;99.90
15217;DHT22;7711;46.634;14.318;2023-04-03T07:31:10;7.70;99.90
15217;DHT22;7711;46.634;14.318;2023-04-03T07:33:41;7.80;99.90
15217;DHT22;7711;46.634;14.318;2023-04-03T07:36:09;7.90;99.90
15217;DHT22;7711;46.634;14.318;2023-04-03T07:38:37;8.10;99.90
15217;DHT22;7711;46.634;14.318;2023-04-03T07:41:04;8.20;99.90
15217;DHT22;7711;46.634;14.318;2023-04-03T07:43:32;8.40;99.90
15217;DHT22;7711;46.634;14.318;2023-04-03T07:46:00;8.40;99.90
15217;DHT22;7711;46.634;14.318;2023-04-03T07:48:27;8.50;99.90
15217;DHT22;7711;46.634;14.318;2023-04-03T07:50:59;8.40;99.00
15217;DHT22;7711;46.634;14.318;2023-04-03T07:53:27;8.30;99.00
15217;DHT22;7711;46.634;14.318;2023-04-03T07:55:54;8.40;97.60
15217;DHT22;7711;46.634;14.318;2023-04-03T07:58:23;8.40;96.60
15217;DHT22;7711;46.634;14.318;2023-04-03T08:00:50;8.00;94.90
15217;DHT22;7711;46.634;14.318;2023-04-03T08:03:17;8.20;99.90
15217;DHT22;7711;46.634;14.318;2023-04-03T08:05:45;8.40;95.40
15217;DHT22;7711;46.634;14.318;2023-04-03T08:08:16;8.50;95.70
15217;DHT22;7711;46.634;14.318;2023-04-03T08:10:44;8.60;95.30
15217;DHT22;7711;46.634;14.318;2023-04-03T08:13:14;8.80;94.20
15217;DHT22;7711;46.634;14.318;2023-04-03T08:15:41;8.80;92.20
15217;DHT22;7711;46.634;14.318;2023-04-03T08:18:09;8.40;92.90
15217;DHT22;7711;46.634;14.318;2023-04-03T08:20:37;8.60;92.20
15217;DHT22;7711;46.634;14.318;2023-04-03T08:23:05;8.70;92.60
15217;DHT22;7711;46.634;14.318;2023-04-03T08:25:33;8.50;92.10
15217;DHT22;7711;46.634;14.318;2023-04-03T08:28:01;8.60;91.80
15217;DHT22;7711;46.634;14.318;2023-04-03T08:30:29;8.40;90.90
15217;DHT22;7711;46.634;14.318;2023-04-03T08:32:56;8.60;91.50
15217;DHT22;7711;46.634;14.318;2023-04-03T08:35:23;8.70;91.10
15217;DHT22;7711;46.634;14.318;2023-04-03T08:37:50;8.40;90.40
15217;DHT22;7711;46.634;14.318;2023-04-03T08:40:17;8.60;90.60
15217;DHT22;7711;46.634;14.318;2023-04-03T08:43:10;8.80;90.00
15217;DHT22;7711;46.634;14.318;2023-04-03T08:45:45;8.80;89.80
15217;DHT22;7711;46.634;14.318;2023-04-03T08:48:16;9.00;90.20
15217;DHT22;7711;46.634;14.318;2023-04-03T08:50:49;9.10;90.00
15217;DHT22;7711;46.634;14.318;2023-04-03T08:53:19;8.90;83.50
15217;DHT22;7711;46.634;14.318;2023-04-03T08:55:49;9.10;84.00
15217;DHT22;7711;46.634;14.318;2023-04-03T08:58:19;9.10;86.50
15217;DHT22;7711;46.634;14.318;2023-04-03T09:00:49;9.10;83.40
15217;DHT22;7711;46.634;14.318;2023-04-03T09:03:18;9.00;83.20
15217;DHT22;7711;46.634;14.318;2023-04-03T09:05:49;9.00;82.80
15217;DHT22;7711;46.634;14.318;2023-04-03T09:08:22;9.10;83.70
15217;DHT22;7711;46.634;14.318;2023-04-03T09:11:06;9.10;82.60
15217;DHT22;7711;46.634;14.318;2023-04-03T09:13:45;9.10;82.50
15217;DHT22;7711;46.634;14.318;2023-04-03T09:16:21;9.00;82.90
15217;DHT22;7711;46.634;14.318;2023-04-03T09:18:57;9.20;82.10
15217;DHT22;7711;46.634;14.318;2023-04-03T09:21:29;9.30;82.60
15217;DHT22;7711;46.634;14.318;2023-04-03T09:24:01;9.50;82.20
15217;DHT22;7711;46.634;14.318;2023-04-03T09:26:35;9.50;79.90
15217;DHT22;7711;46.634;14.318;2023-04-03T09:29:07;9.40;78.70
15217;DHT22;7711;46.634;14.318;2023-04-03T09:31:37;9.40;78.10
15217;DHT22;7711;46.634;14.318;2023-04-03T09:34:10;9.60;83.80
15217;DHT22;7711;46.634;14.318;2023-04-03T09:36:45;9.50;78.10
15217;DHT22;7711;46.634;14.318;2023-04-03T09:39:16;9.50;77.40
15217;DHT22;7711;46.634;14.318;2023-04-03T09:41:56;9.50;78.10
15217;DHT22;7711;46.634;14.318;2023-04-03T09:44:26;9.40;75.10
15217;DHT22;7711;46.634;14.318;2023-04-03T09:46:54;9.60;72.00
15217;DHT22;7711;46.634;14.318;2023-04-03T09:49:21;9.60;74.70
15217;DHT22;7711;46.634;14.318;2023-04-03T09:51:48;9.30;73.50
15217;DHT22;7711;46.634;14.318;2023-04-03T09:54:34;9.40;73.70
15217;DHT22;7711;46.634;14.318;2023-04-03T09:57:07;9.60;74.70
15217;DHT22;7711;46.634;14.318;2023-04-03T09:59:39;9.70;73.20
15217;DHT22;7711;46.634;14.318;2023-04-03T10:02:34;10.00;73.40
15217;DHT22;7711;46.634;14.318;2023-04-03T10:05:02;10.00;73.80
15217;DHT22;7711;46.634;14.318;2023-04-03T10:07:32;10.00;68.10
15217;DHT22;7711;46.634;14.318;2023-04-03T10:10:02;10.10;67.10
15217;DHT22;7711;46.634;14.318;2023-04-03T10:12:30;9.70;69.80
15217;DHT22;7711;46.634;14.318;2023-04-03T10:15:00;9.70;66.90
15217;DHT22;7711;46.634;14.318;2023-04-03T10:17:41;9.70;70.70
15217;DHT22;7711;46.634;14.318;2023-04-03T10:20:32;9.90;72.50
15217;DHT22;7711;46.634;14.318;2023-04-03T10:23:15;10.10;71.40
15217;DHT22;7711;46.634;14.318;2023-04-03T10:25:51;10.10;66.30
15217;DHT22;7711;46.634;14.318;2023-04-03T10:28:25;10.20;66.10
15217;DHT22;7711;46.634;14.318;2023-04-03T10:31:00;10.00;90.70
15217;DHT22;7711;46.634;14.318;2023-04-03T10:33:39;10.20;64.40
15217;DHT22;7711;46.634;14.318;2023-04-03T10:36:18;10.10;64.10
15217;DHT22;7711;46.634;14.318;2023-04-03T10:38:53;10.00;62.00
15217;DHT22;7711;46.634;14.318;2023-04-03T10:41:32;9.70;63.50
15217;DHT22;7711;46.634;14.318;2023-04-03T10:44:11;9.80;66.20
15217;DHT22;7711;46.634;14.318;2023-04-03T10:46:45;10.30;66.20
15217;DHT22;7711;46.634;14.318;2023-04-03T10:49:30;10.10;65.40
15217;DHT22;7711;46.634;14.318;2023-04-03T10:52:05;10.50;61.20
15217;DHT22;7711;46.634;14.318;2023-04-03T10:54:38;10.40;67.00
15217;DHT22;7711;46.634;14.318;2023-04-03T10:57:08;10.10;60.10
15217;DHT22;7711;46.634;14.318;2023-04-03T10:59:38;9.50;58.40
15217;DHT22;7711;46.634;14.318;2023-04-03T11:02:14;9.20;62.10
15217;DHT22;7711;46.634;14.318;2023-04-03T11:04:50;9.80;68.10
15217;DHT22;7711;46.634;14.318;2023-04-03T11:07:20;9.90;63.60
15217;DHT22;7711;46.634;14.318;2023-04-03T11:09:50;10.00;62.00
15217;DHT22;7711;46.634;14.318;2023-04-03T11:12:24;10.10;61.70
15217;DHT22;7711;46.634;14.318;2023-04-03T11:14:55;10.30;60.10
15217;DHT22;7711;46.634;14.318;2023-04-03T11:17:30;10.00;60.80
15217;DHT22;7711;46.634;14.318;2023-04-03T11:20:03;9.90;61.10
15217;DHT22;7711;46.634;14.318;2023-04-03T11:22:35;10.30;65.20
15217;DHT22;7711;46.634;14.318;2023-04-03T11:25:10;10.50;60.30
15217;DHT22;7711;46.634;14.318;2023-04-03T11:27:44;10.20;61.20
15217;DHT22;7711;46.634;14.318;2023-04-03T11:30:17;10.80;60.50
15217;DHT22;7711;46.634;14.318;2023-04-03T11:33:17;10.90;57.10
15217;DHT22;7711;46.634;14.318;2023-04-03T11:35:49;10.90;59.10
15217;DHT22;7711;46.634;14.318;2023-04-03T11:38:22;10.50;56.00
15217;DHT22;7711;46.634;14.318;2023-04-03T11:40:52;10.40;57.20
15217;DHT22;7711;46.634;14.318;2023-04-03T11:43:25;10.40;56.80
15217;DHT22;7711;46.634;14.318;2023-04-03T11:45:57;10.20;57.20
15217;DHT22;7711;46.634;14.318;2023-04-03T11:48:47;10.10;56.40
15217;DHT22;7711;46.634;14.318;2023-04-03T11:51:41;10.00;56.90
15217;DHT22;7711;46.634;14.318;2023-04-03T11:54:44;10.60;56.80
15217;DHT22;7711;46.634;14.318;2023-04-03T11:57:43;11.10;60.30
15217;DHT22;7711;46.634;14.318;2023-04-03T12:00:51;11.50;56.40
15217;DHT22;7711;46.634;14.318;2023-04-03T12:09:34;10.50;53.50
15217;DHT22;7711;46.634;14.318;2023-04-03T12:12:23;11.00;55.10
15217;DHT22;7711;46.634;14.318;2023-04-03T12:14:51;10.90;51.20
15217;DHT22;7711;46.634;14.318;2023-04-03T12:17:23;11.00;55.20
15217;DHT22;7711;46.634;14.318;2023-04-03T12:19:51;11.00;52.00
15217;DHT22;7711;46.634;14.318;2023-04-03T12:22:19;11.00;51.50
15217;DHT22;7711;46.634;14.318;2023-04-03T12:24:49;10.50;49.90
15217;DHT22;7711;46.634;14.318;2023-04-03T12:27:24;10.60;51.90
15217;DHT22;7711;46.634;14.318;2023-04-03T12:30:04;10.80;51.40
15217;DHT22;7711;46.634;14.318;2023-04-03T12:33:03;11.30;53.20
15217;DHT22;7711;46.634;14.318;2023-04-03T12:35:35;11.00;50.30
15217;DHT22;7711;46.634;14.318;2023-04-03T12:38:37;11.30;52.10
15217;DHT22;7711;46.634;14.318;2023-04-03T12:41:29;11.40;50.60
15217;DHT22;7711;46.634;14.318;2023-04-03T12:44:26;11.40;48.70
15217;DHT22;7711;46.634;14.318;2023-04-03T12:47:00;10.80;51.30
15217;DHT22;7711;46.634;14.318;2023-04-03T12:49:35;10.90;47.70
15217;DHT22;7711;46.634;14.318;2023-04-03T12:52:05;10.50;48.50
15217;DHT22;7711;46.634;14.318;2023-04-03T12:54:40;10.80;47.00
15217;DHT22;7711;46.634;14.318;2023-04-03T12:57:12;11.30;48.30
15217;DHT22;7711;46.634;14.318;2023-04-03T12:59:40;11.40;48.50
15217;DHT22;7711;46.634;14.318;2023-04-03T13:02:20;11.90;47.60
15217;DHT22;7711;46.634;14.318;2023-04-03T13:04:49;11.70;47.50
15217;DHT22;7711;46.634;14.318;2023-04-03T13:07:22;11.90;46.20
15217;DHT22;7711;46.634;14.318;2023-04-03T13:09:59;11.90;46.60
15217;DHT22;7711;46.634;14.318;2023-04-03T13:12:30;10.90;43.00
15217;DHT22;7711;46.634;14.318;2023-04-03T13:14:58;11.00;46.30
15217;DHT22;7711;46.634;14.318;2023-04-03T13:17:27;11.80;46.60
15217;DHT22;7711;46.634;14.318;2023-04-03T13:19:54;11.30;44.30
15217;DHT22;7711;46.634;14.318;2023-04-03T13:22:27;12.00;45.50
15217;DHT22;7711;46.634;14.318;2023-04-03T13:24:55;12.30;43.70
15217;DHT22;7711;46.634;14.318;2023-04-03T13:27:23;12.80;45.40
15217;DHT22;7711;46.634;14.318;2023-04-03T13:29:54;13.30;40.50
15217;DHT22;7711;46.634;14.318;2023-04-03T13:32:25;12.40;38.90
15217;DHT22;7711;46.634;14.318;2023-04-03T13:34:53;12.70;41.70
15217;DHT22;7711;46.634;14.318;2023-04-03T13:37:26;13.40;36.90
15217;DHT22;7711;46.634;14.318;2023-04-03T13:40:00;12.90;37.90
15217;DHT22;7711;46.634;14.318;2023-04-03T13:42:29;12.90;40.00
15217;DHT22;7711;46.634;14.318;2023-04-03T13:45:16;13.20;37.80
15217;DHT22;7711;46.634;14.318;2023-04-03T13:47:45;12.40;36.80
15217;DHT22;7711;46.634;14.318;2023-04-03T13:50:16;12.50;38.20
15217;DHT22;7711;46.634;14.318;2023-04-03T13:52:45;12.70;38.40
15217;DHT22;7711;46.634;14.318;2023-04-03T13:55:21;12.60;38.40
15217;DHT22;7711;46.634;14.318;2023-04-03T13:57:51;13.10;38.40
15217;DHT22;7711;46.634;14.318;2023-04-03T14:00:29;12.90;31.90
15217;DHT22;7711;46.634;14.318;2023-04-03T14:02:57;11.40;35.00
15217;DHT22;7711;46.634;14.318;2023-04-03T14:05:25;11.30;38.50
15217;DHT22;7711;46.634;14.318;2023-04-03T14:07:53;10.60;35.70
15217;DHT22;7711;46.634;14.318;2023-04-03T14:10:21;10.30;36.60
15217;DHT22;7711;46.634;14.318;2023-04-03T14:12:48;10.70;40.80
15217;DHT22;7711;46.634;14.318;2023-04-03T14:15:21;11.40;38.60
15217;DHT22;7711;46.634;14.318;2023-04-03T14:17:51;11.80;37.60
15217;DHT22;7711;46.634;14.318;2023-04-03T14:20:21;12.00;37.00
15217;DHT22;7711;46.634;14.318;2023-04-03T14:22:49;12.00;34.40
15217;DHT22;7711;46.634;14.318;2023-04-03T14:25:17;12.30;33.70
15217;DHT22;7711;46.634;14.318;2023-04-03T14:27:46;12.90;33.40
15217;DHT22;7711;46.634;14.318;2023-04-03T14:30:16;12.80;31.80
15217;DHT22;7711;46.634;14.318;2023-04-03T14:32:44;12.70;31.90
15217;DHT22;7711;46.634;14.318;2023-04-03T14:35:14;13.00;33.90
15217;DHT22;7711;46.634;14.318;2023-04-03T14:37:41;12.50;31.30
15217;DHT22;7711;46.634;14.318;2023-04-03T14:40:11;13.10;32.20
15217;DHT22;7711;46.634;14.318;2023-04-03T14:42:39;13.20;32.10
15217;DHT22;7711;46.634;14.318;2023-04-03T14:45:09;13.30;29.60
15217;DHT22;7711;46.634;14.318;2023-04-03T14:47:40;13.10;29.90
15217;DHT22;7711;46.634;14.318;2023-04-03T14:50:16;12.50;29.90
15217;DHT22;7711;46.634;14.318;2023-04-03T14:52:44;12.60;31.70
15217;DHT22;7711;46.634;14.318;2023-04-03T14:55:14;12.20;31.10
15217;DHT22;7711;46.634;14.318;2023-04-03T14:57:42;12.60;34.00
15217;DHT22;7711;46.634;14.318;2023-04-03T15:00:13;12.80;31.20
15217;DHT22;7711;46.634;14.318;2023-04-03T15:02:42;12.20;31.90
15217;DHT22;7711;46.634;14.318;2023-04-03T15:05:10;12.50;31.10
15217;DHT22;7711;46.634;14.318;2023-04-03T15:07:41;12.80;30.90
15217;DHT22;7711;46.634;14.318;2023-04-03T15:10:16;13.90;29.90
15217;DHT22;7711;46.634;14.318;2023-04-03T15:12:44;11.80;29.80
15217;DHT22;7711;46.634;14.318;2023-04-03T15:15:12;11.70;32.60
15217;DHT22;7711;46.634;14.318;2023-04-03T15:17:40;12.90;32.50
15217;DHT22;7711;46.634;14.318;2023-04-03T15:20:13;13.20;29.70
15217;DHT22;7711;46.634;14.318;2023-04-03T15:22:42;13.00;30.10
15217;DHT22;7711;46.634;14.318;2023-04-03T15:25:09;12.30;29.70
15217;DHT22;7711;46.634;14.318;2023-04-03T15:27:37;13.10;30.50
15217;DHT22;7711;46.634;14.318;2023-04-03T15:30:05;12.10;30.50
15217;DHT22;7711;46.634;14.318;2023-04-03T15:32:32;12.30;30.90
15217;DHT22;7711;46.634;14.318;2023-04-03T15:35:00;12.20;30.40
15217;DHT22;7711;46.634;14.318;2023-04-03T15:37:27;11.80;30.10
15217;DHT22;7711;46.634;14.318;2023-04-03T15:39:56;11.40;31.00
15217;DHT22;7711;46.634;14.318;2023-04-03T15:42:23;11.90;31.20
15217;DHT22;7711;46.634;14.318;2023-04-03T15:44:50;12.40;30.90
15217;DHT22;7711;46.634;14.318;2023-04-03T15:47:17;12.50;29.50
15217;DHT22;7711;46.634;14.318;2023-04-03T15:49:45;12.40;28.10
15217;DHT22;7711;46.634;14.318;2023-04-03T15:52:12;11.80;29.60
15217;DHT22;7711;46.634;14.318;2023-04-03T15:54:39;11.70;27.80
15217;DHT22;7711;46.634;14.318;2023-04-03T15:57:07;11.20;28.70
15217;DHT22;7711;46.634;14.318;2023-04-03T15:59:34;11.90;29.60
15217;DHT22;7711;46.634;14.318;2023-04-03T16:02:04;12.10;28.40
15217;DHT22;7711;46.634;14.318;2023-04-03T16:04:33;11.30;27.20
15217;DHT22;7711;46.634;14.318;2023-04-03T16:07:01;11.60;29.20
15217;DHT22;7711;46.634;14.318;2023-04-03T16:09:28;11.80;27.80